sensor_id;sensor_type;location;lat;lon;timestamp;pressure;altitude;pressure_sealevel;temperature;humidity
35023;BME280;21214;44.912;8.204;2023-02-20T00:00:38;100503.31;;;7.12;100.00
35023;BME280;21214;44.912;8.204;2023-02-20T00:03:04;100506.88;;;7.11;100.00
35023;BME280;21214;44.912;8.204;2023-02-20T00:05:29;100511.44;;;7.08;100.00
35023;BME280;21214;44.912;8.204;2023-02-20T00:07:55;100509.78;;;7.07;100.00
35023;BME280;21214;44.912;8.204;2023-02-20T00:10:20;100502.84;;;7.06;100.00
35023;BME280;21214;44.912;8.204;2023-02-20T00:12:46;100514.69;;;6.84;100.00
35023;BME280;21214;44.912;8.204;2023-02-20T00:15:15;100515.53;;;6.85;100.00
35023;BME280;21214;44.912;8.204;2023-02-20T00:17:41;100510.47;;;6.68;100.00
35023;BME280;21214;44.912;8.204;2023-02-20T00:20:07;100513.47;;;6.62;100.00
35023;BME280;21214;44.912;8.204;2023-02-20T00:22:32;100516.03;;;6.63;100.00
35023;BME280;21214;44.912;8.204;2023-02-20T00:24:59;100512.34;;;6.66;100.00
35023;BME280;21214;44.912;8.204;2023-02-20T00:27:24;100516.41;;;6.71;100.00
35023;BME280;21214;44.912;8.204;2023-02-20T00:29:50;100513.41;;;6.63;100.00
35023;BME280;21214;44.912;8.204;2023-02-20T00:32:15;100521.66;;;6.71;100.00
35023;BME280;21214;44.912;8.204;2023-02-20T00:34:42;100510.88;;;6.47;100.00
35023;BME280;21214;44.912;8.204;2023-02-20T00:37:08;100508.34;;;6.46;100.00
35023;BME280;21214;44.912;8.204;2023-02-20T00:39:33;100497.66;;;6.35;100.00
35023;BME280;21214;44.912;8.204;2023-02-20T00:41:59;100514.31;;;6.20;100.00
35023;BME280;21214;44.912;8.204;2023-02-20T00:44:25;100516.81;;;6.07;100.00
35023;BME280;21214;44.912;8.204;2023-02-20T00:46:52;100513.72;;;6.00;100.00
35023;BME280;21214;44.912;8.204;2023-02-20T00:49:18;100514.31;;;6.05;100.00
35023;BME280;21214;44.912;8.204;2023-02-20T00:51:44;100522.91;;;6.07;100.00
35023;BME280;21214;44.912;8.204;2023-02-20T00:54:10;100529.09;;;6.06;100.00
35023;BME280;21214;44.912;8.204;2023-02-20T00:56:35;100519.34;;;6.08;100.00
35023;BME280;21214;44.912;8.204;2023-02-20T00:59:01;100525.06;;;6.15;100.00
35023;BME280;21214;44.912;8.204;2023-02-20T01:01:26;100527.13;;;6.10;100.00
35023;BME280;21214;44.912;8.204;2023-02-20T01:03:51;100526.13;;;6.12;100.00
35023;BME280;21214;44.912;8.204;2023-02-20T01:06:18;100524.78;;;6.05;100.00
35023;BME280;21214;44.912;8.204;2023-02-20T01:08:44;100514.31;;;6.05;100.00
35023;BME280;21214;44.912;8.204;2023-02-20T01:11:10;100510.91;;;6.03;100.00
35023;BME280;21214;44.912;8.204;2023-02-20T01:13:35;100513.72;;;6.00;100.00
35023;BME280;21214;44.912;8.204;2023-02-20T01:16:00;100516.34;;;6.00;100.00
35023;BME280;21214;44.912;8.204;2023-02-20T01:18:26;100518.38;;;5.95;100.00
35023;BME280;21214;44.912;8.204;2023-02-20T01:20:51;100519.72;;;6.02;100.00
35023;BME280;21214;44.912;8.204;2023-02-20T01:23:17;100521.19;;;5.92;100.00
35023;BME280;21214;44.912;8.204;2023-02-20T01:25:44;100522.13;;;5.91;100.00
35023;BME280;21214;44.912;8.204;2023-02-20T01:28:09;100512.16;;;5.82;100.00
35023;BME280;21214;44.912;8.204;2023-02-20T01:30:34;100514.22;;;5.77;100.00
35023;BME280;21214;44.912;8.204;2023-02-20T01:33:01;100523.91;;;5.75;100.00
35023;BME280;21214;44.912;8.204;2023-02-20T01:35:28;100527.19;;;5.78;100.00
35023;BME280;21214;44.912;8.204;2023-02-20T01:37:56;100521.47;;;5.72;100.00
35023;BME280;21214;44.912;8.204;2023-02-20T01:40:22;100520.88;;;5.67;100.00
35023;BME280;21214;44.912;8.204;2023-02-20T01:42:48;100522.16;;;5.60;100.00
35023;BME280;21214;44.912;8.204;2023-02-20T01:45:37;100528.91;;;5.34;100.00
35023;BME280;21214;44.912;8.204;2023-02-20T01:48:02;100537.50;;;5.20;100.00
35023;BME280;21214;44.912;8.204;2023-02-20T01:50:34;100532.69;;;5.28;100.00
35023;BME280;21214;44.912;8.204;2023-02-20T01:53:03;100524.59;;;5.33;100.00
35023;BME280;21214;44.912;8.204;2023-02-20T01:55:36;100539.44;;;5.32;100.00
35023;BME280;21214;44.912;8.204;2023-02-20T01:58:22;100531.31;;;5.37;100.00
35023;BME280;21214;44.912;8.204;2023-02-20T02:00:50;100538.94;;;5.42;100.00
35023;BME280;21214;44.912;8.204;2023-02-20T02:03:19;100544.00;;;5.45;100.00
35023;BME280;21214;44.912;8.204;2023-02-20T02:05:48;100545.50;;;5.49;100.00
35023;BME280;21214;44.912;8.204;2023-02-20T02:08:18;100548.13;;;5.49;100.00
35023;BME280;21214;44.912;8.204;2023-02-20T02:13:10;100545.34;;;5.52;100.00
35023;BME280;21214;44.912;8.204;2023-02-20T02:15:38;100549.41;;;5.42;100.00
35023;BME280;21214;44.912;8.204;2023-02-20T02:38:25;100539.63;;;4.98;100.00
35023;BME280;21214;44.912;8.204;2023-02-20T02:41:02;100550.22;;;4.95;100.00
35023;BME280;21214;44.912;8.204;2023-02-20T02:44:14;100547.63;;;4.95;100.00
35023;BME280;21214;44.912;8.204;2023-02-20T02:48:46;100545.19;;;4.92;100.00
35023;BME280;21214;44.912;8.204;2023-02-20T02:51:18;100552.63;;;5.00;100.00
35023;BME280;21214;44.912;8.204;2023-02-20T02:56:44;100567.28;;;5.02;100.00
35023;BME280;21214;44.912;8.204;2023-02-20T02:59:11;100569.50;;;5.10;100.00
35023;BME280;21214;44.912;8.204;2023-02-20T03:01:40;100570.50;;;5.07;100.00
35023;BME280;21214;44.912;8.204;2023-02-20T03:04:06;100579.03;;;5.11;100.00
35023;BME280;21214;44.912;8.204;2023-02-20T03:06:39;100573.53;;;5.15;100.00
35023;BME280;21214;44.912;8.204;2023-02-20T03:09:08;100580.22;;;5.05;100.00
35023;BME280;21214;44.912;8.204;2023-02-20T03:11:35;100576.72;;;4.89;100.00
35023;BME280;21214;44.912;8.204;2023-02-20T03:17:13;100578.91;;;4.81;100.00
35023;BME280;21214;44.912;8.204;2023-02-20T03:19:45;100590.94;;;4.68;100.00
35023;BME280;21214;44.912;8.204;2023-02-20T03:22:14;100594.06;;;4.74;100.00
35023;BME280;21214;44.912;8.204;2023-02-20T03:24:43;100593.53;;;4.68;100.00
35023;BME280;21214;44.912;8.204;2023-02-20T03:27:38;100595.88;;;4.57;100.00
35023;BME280;21214;44.912;8.204;2023-02-20T03:30:11;100596.34;;;4.65;100.00
35023;BME280;21214;44.912;8.204;2023-02-20T03:32:47;100608.03;;;4.58;100.00
35023;BME280;21214;44.912;8.204;2023-02-20T03:35:37;100612.41;;;4.57;100.00
35023;BME280;21214;44.912;8.204;2023-02-20T03:38:22;100612.47;;;4.56;100.00
35023;BME280;21214;44.912;8.204;2023-02-20T03:41:08;100616.47;;;4.63;100.00
35023;BME280;21214;44.912;8.204;2023-02-20T03:43:53;100620.72;;;4.65;100.00
35023;BME280;21214;44.912;8.204;2023-02-20T03:46:20;100628.09;;;4.57;100.00
35023;BME280;21214;44.912;8.204;2023-02-20T03:51:17;100625.56;;;4.56;100.00
35023;BME280;21214;44.912;8.204;2023-02-20T03:53:58;100640.91;;;4.62;100.00
35023;BME280;21214;44.912;8.204;2023-02-20T03:56:29;100637.69;;;4.57;100.00
35023;BME280;21214;44.912;8.204;2023-02-20T03:58:59;100642.44;;;4.66;100.00
35023;BME280;21214;44.912;8.204;2023-02-20T04:01:26;100645.84;;;4.68;100.00
35023;BME280;21214;44.912;8.204;2023-02-20T04:03:52;100645.06;;;4.66;100.00
35023;BME280;21214;44.912;8.204;2023-02-20T04:06:19;100642.44;;;4.66;100.00
35023;BME280;21214;44.912;8.204;2023-02-20T04:09:04;100640.56;;;4.52;100.00
35023;BME280;21214;44.912;8.204;2023-02-20T04:11:38;100643.09;;;4.53;100.00
35023;BME280;21214;44.912;8.204;2023-02-20T04:14:07;100651.09;;;4.50;100.00
35023;BME280;21214;44.912;8.204;2023-02-20T04:16:34;100655.84;;;4.60;100.00
35023;BME280;21214;44.912;8.204;2023-02-20T04:19:02;100652.59;;;4.54;100.00
35023;BME280;21214;44.912;8.204;2023-02-20T04:24:01;100658.38;;;4.44;100.00
35023;BME280;21214;44.912;8.204;2023-02-20T04:26:27;100662.09;;;4.40;100.00
35023;BME280;21214;44.912;8.204;2023-02-20T04:28:53;100666.91;;;4.30;100.00
35023;BME280;21214;44.912;8.204;2023-02-20T04:31:19;100662.44;;;4.15;100.00
35023;BME280;21214;44.912;8.204;2023-02-20T04:33:46;100672.50;;;4.05;100.00
35023;BME280;21214;44.912;8.204;2023-02-20T04:36:17;100681.31;;;4.03;100.00
35023;BME280;21214;44.912;8.204;2023-02-20T04:38:42;100692.28;;;3.92;100.00
35023;BME280;21214;44.912;8.204;2023-02-20T04:41:11;100689.94;;;3.69;100.00
35023;BME280;21214;44.912;8.204;2023-02-20T04:43:38;100696.41;;;3.60;100.00
35023;BME280;21214;44.912;8.204;2023-02-20T04:46:04;100708.53;;;3.61;100.00
35023;BME280;21214;44.912;8.204;2023-02-20T04:48:30;100706.22;;;3.55;100.00
35023;BME280;21214;44.912;8.204;2023-02-20T04:50:56;100702.91;;;3.52;100.00
35023;BME280;21214;44.912;8.204;2023-02-20T04:53:21;100705.16;;;3.59;100.00
35023;BME280;21214;44.912;8.204;2023-02-20T04:55:47;100706.72;;;3.63;100.00
35023;BME280;21214;44.912;8.204;2023-02-20T04:58:16;100712.50;;;3.70;100.00
35023;BME280;21214;44.912;8.204;2023-02-20T05:00:54;100718.34;;;3.75;100.00
35023;BME280;21214;44.912;8.204;2023-02-20T05:03:21;100711.09;;;3.82;100.00
35023;BME280;21214;44.912;8.204;2023-02-20T05:05:46;100721.94;;;3.91;100.00
35023;BME280;21214;44.912;8.204;2023-02-20T05:08:12;100723.63;;;3.92;100.00
35023;BME280;21214;44.912;8.204;2023-02-20T05:10:37;100729.44;;;3.61;100.00
35023;BME280;21214;44.912;8.204;2023-02-20T05:13:03;100723.84;;;3.50;100.00
35023;BME280;21214;44.912;8.204;2023-02-20T05:15:29;100723.84;;;3.50;100.00
35023;BME280;21214;44.912;8.204;2023-02-20T05:17:54;100726.69;;;3.46;100.00
35023;BME280;21214;44.912;8.204;2023-02-20T05:20:20;100730.97;;;3.28;100.00
35023;BME280;21214;44.912;8.204;2023-02-20T05:22:45;100725.44;;;3.15;100.00
35023;BME280;21214;44.912;8.204;2023-02-20T05:25:12;100739.84;;;3.24;100.00
35023;BME280;21214;44.912;8.204;2023-02-20T05:27:41;100736.28;;;3.25;100.00
35023;BME280;21214;44.912;8.204;2023-02-20T05:30:07;100731.72;;;3.30;100.00
35023;BME280;21214;44.912;8.204;2023-02-20T05:32:32;100736.97;;;3.10;100.00
35023;BME280;21214;44.912;8.204;2023-02-20T05:34:58;100743.31;;;3.04;100.00
35023;BME280;21214;44.912;8.204;2023-02-20T05:37:25;100745.28;;;2.99;100.00
35023;BME280;21214;44.912;8.204;2023-02-20T05:39:51;100736.97;;;3.10;100.00
35023;BME280;21214;44.912;8.204;2023-02-20T05:42:17;100731.56;;;3.14;100.00
35023;BME280;21214;44.912;8.204;2023-02-20T05:44:42;100751.44;;;3.17;100.00
35023;BME280;21214;44.912;8.204;2023-02-20T05:47:08;100753.78;;;3.23;100.00
35023;BME280;21214;44.912;8.204;2023-02-20T05:49:34;100760.72;;;3.24;100.00
35023;BME280;21214;44.912;8.204;2023-02-20T05:52:00;100769.44;;;3.23;100.00
35023;BME280;21214;44.912;8.204;2023-02-20T05:54:26;100771.97;;;3.24;100.00
35023;BME280;21214;44.912;8.204;2023-02-20T05:56:51;100771.78;;;3.09;100.00
35023;BME280;21214;44.912;8.204;2023-02-20T05:59:18;100780.53;;;3.08;100.00
35023;BME280;21214;44.912;8.204;2023-02-20T06:01:44;100775.19;;;3.11;100.00
35023;BME280;21214;44.912;8.204;2023-02-20T06:04:09;100780.91;;;3.19;100.00
35023;BME280;21214;44.912;8.204;2023-02-20T06:06:36;100779.34;;;3.15;100.00
35023;BME280;21214;44.912;8.204;2023-02-20T06:09:02;100786.13;;;3.19;100.00
35023;BME280;21214;44.912;8.204;2023-02-20T06:11:28;100778.44;;;3.16;100.00
35023;BME280;21214;44.912;8.204;2023-02-20T06:13:54;100790.31;;;3.03;100.00
35023;BME280;21214;44.912;8.204;2023-02-20T06:16:27;100788.22;;;3.11;100.00
35023;BME280;21214;44.912;8.204;2023-02-20T06:18:53;100790.38;;;3.21;100.00
35023;BME280;21214;44.912;8.204;2023-02-20T06:21:19;100794.31;;;3.30;100.00
35023;BME280;21214;44.912;8.204;2023-02-20T06:23:47;100791.72;;;3.30;100.00
35023;BME280;21214;44.912;8.204;2023-02-20T06:26:13;100797.09;;;3.27;100.00
35023;BME280;21214;44.912;8.204;2023-02-20T06:28:39;100795.25;;;3.29;100.00
35023;BME280;21214;44.912;8.204;2023-02-20T06:31:05;100802.78;;;3.16;100.00
35023;BME280;21214;44.912;8.204;2023-02-20T06:33:31;100811.13;;;3.04;100.00
35023;BME280;21214;44.912;8.204;2023-02-20T06:35:56;100819.91;;;3.02;100.00
35023;BME280;21214;44.912;8.204;2023-02-20T06:38:22;100817.88;;;3.08;100.00
35023;BME280;21214;44.912;8.204;2023-02-20T06:40:47;100822.72;;;3.17;100.00
35023;BME280;21214;44.912;8.204;2023-02-20T06:43:12;100833.88;;;3.21;100.00
35023;BME280;21214;44.912;8.204;2023-02-20T06:45:38;100843.44;;;3.20;100.00
35023;BME280;21214;44.912;8.204;2023-02-20T06:48:03;100845.75;;;3.28;100.00
35023;BME280;21214;44.912;8.204;2023-02-20T06:50:29;100849.41;;;3.24;100.00
35023;BME280;21214;44.912;8.204;2023-02-20T06:52:54;100849.25;;;3.27;100.00
35023;BME280;21214;44.912;8.204;2023-02-20T06:55:20;100855.28;;;3.29;100.00
35023;BME280;21214;44.912;8.204;2023-02-20T06:57:45;100867.84;;;3.40;100.00
35023;BME280;21214;44.912;8.204;2023-02-20T07:00:11;100864.97;;;3.46;100.00
35023;BME280;21214;44.912;8.204;2023-02-20T07:02:36;100868.19;;;3.52;100.00
35023;BME280;21214;44.912;8.204;2023-02-20T07:05:02;100868.94;;;3.54;100.00
35023;BME280;21214;44.912;8.204;2023-02-20T07:07:28;100875.75;;;3.58;100.00
35023;BME280;21214;44.912;8.204;2023-02-20T07:09:53;100880.69;;;3.44;100.00
35023;BME280;21214;44.912;8.204;2023-02-20T07:12:19;100878.66;;;3.51;100.00
35023;BME280;21214;44.912;8.204;2023-02-20T07:14:44;100878.66;;;3.51;100.00
35023;BME280;21214;44.912;8.204;2023-02-20T07:17:09;100882.94;;;3.53;100.00
35023;BME280;21214;44.912;8.204;2023-02-20T07:19:35;100885.44;;;3.55;100.00
35023;BME280;21214;44.912;8.204;2023-02-20T07:22:00;100892.31;;;3.57;100.00
35023;BME280;21214;44.912;8.204;2023-02-20T07:24:25;100892.94;;;3.62;100.00
35023;BME280;21214;44.912;8.204;2023-02-20T07:26:52;100900.25;;;3.75;100.00
35023;BME280;21214;44.912;8.204;2023-02-20T07:29:17;100898.06;;;3.84;100.00
35023;BME280;21214;44.912;8.204;2023-02-20T07:31:43;100898.81;;;3.88;100.00
35023;BME280;21214;44.912;8.204;2023-02-20T07:34:08;100905.16;;;4.01;100.00
35023;BME280;21214;44.912;8.204;2023-02-20T07:36:36;100899.94;;;4.01;100.00
35023;BME280;21214;44.912;8.204;2023-02-20T07:39:04;100910.47;;;3.99;100.00
35023;BME280;21214;44.912;8.204;2023-02-20T07:41:33;100924.38;;;4.00;100.00
35023;BME280;21214;44.912;8.204;2023-02-20T07:44:03;100917.47;;;3.99;100.00
35023;BME280;21214;44.912;8.204;2023-02-20T07:46:29;100932.53;;;3.92;100.00
35023;BME280;21214;44.912;8.204;2023-02-20T07:48:58;100927.97;;;3.97;100.00
35023;BME280;21214;44.912;8.204;2023-02-20T07:51:24;100932.38;;;3.77;100.00
35023;BME280;21214;44.912;8.204;2023-02-20T07:53:49;100929.56;;;3.61;100.00
35023;BME280;21214;44.912;8.204;2023-02-20T07:56:15;100930.41;;;3.41;100.00
35023;BME280;21214;44.912;8.204;2023-02-20T07:58:41;100940.59;;;3.47;100.00
35023;BME280;21214;44.912;8.204;2023-02-20T08:01:06;100933.81;;;3.63;100.00
35023;BME280;21214;44.912;8.204;2023-02-20T08:03:31;100940.84;;;3.82;100.00
35023;BME280;21214;44.912;8.204;2023-02-20T08:05:57;100934.31;;;3.92;100.00
35023;BME280;21214;44.912;8.204;2023-02-20T08:08:22;100935.84;;;3.96;100.00
35023;BME280;21214;44.912;8.204;2023-02-20T08:10:49;100930.16;;;3.88;100.00
35023;BME280;21214;44.912;8.204;2023-02-20T08:13:18;100931.28;;;4.01;100.00
35023;BME280;21214;44.912;8.204;2023-02-20T08:15:43;100936.50;;;4.01;100.00
35023;BME280;21214;44.912;8.204;2023-02-20T08:18:09;100939.63;;;4.09;100.00
35023;BME280;21214;44.912;8.204;2023-02-20T08:20:34;100947.72;;;4.23;100.00
35023;BME280;21214;44.912;8.204;2023-02-20T08:23:00;100945.31;;;4.37;100.00
35023;BME280;21214;44.912;8.204;2023-02-20T08:25:25;100953.50;;;4.48;100.00
35023;BME280;21214;44.912;8.204;2023-02-20T08:27:51;100955.47;;;4.43;100.00
35023;BME280;21214;44.912;8.204;2023-02-20T08:30:21;100948.56;;;4.42;100.00
35023;BME280;21214;44.912;8.204;2023-02-20T08:32:49;100949.81;;;4.15;100.00
35023;BME280;21214;44.912;8.204;2023-02-20T08:35:14;100953.97;;;4.19;100.00
35023;BME280;21214;44.912;8.204;2023-02-20T08:37:39;100954.75;;;4.21;100.00
35023;BME280;21214;44.912;8.204;2023-02-20T08:40:05;100958.06;;;4.25;100.00
35023;BME280;21214;44.912;8.204;2023-02-20T08:42:32;100962.00;;;4.35;100.00
35023;BME280;21214;44.912;8.204;2023-02-20T08:44:58;100948.28;;;4.48;100.00
35023;BME280;21214;44.912;8.204;2023-02-20T08:47:23;100954.06;;;4.55;100.00
35023;BME280;21214;44.912;8.204;2023-02-20T08:49:49;100954.53;;;4.65;100.00
35023;BME280;21214;44.912;8.204;2023-02-20T08:52:14;100956.19;;;4.66;100.00
35023;BME280;21214;44.912;8.204;2023-02-20T08:54:43;100954.97;;;4.54;100.00
35023;BME280;21214;44.912;8.204;2023-02-20T08:57:09;100947.09;;;4.56;100.00
35023;BME280;21214;44.912;8.204;2023-02-20T08:59:34;100941.56;;;4.62;100.00
35023;BME280;21214;44.912;8.204;2023-02-20T09:02:01;100951.91;;;4.65;100.00
35023;BME280;21214;44.912;8.204;2023-02-20T09:04:26;100947.00;;;4.76;100.00
35023;BME280;21214;44.912;8.204;2023-02-20T09:06:52;100949.69;;;4.74;100.00
35023;BME280;21214;44.912;8.204;2023-02-20T09:09:17;100945.16;;;4.78;100.00
35023;BME280;21214;44.912;8.204;2023-02-20T09:11:42;100944.47;;;4.74;100.00
35023;BME280;21214;44.912;8.204;2023-02-20T09:14:08;100940.59;;;4.83;100.00
35023;BME280;21214;44.912;8.204;2023-02-20T09:16:33;100934.13;;;4.90;100.00
35023;BME280;21214;44.912;8.204;2023-02-20T09:18:58;100939.78;;;4.81;100.00
35023;BME280;21214;44.912;8.204;2023-02-20T09:21:25;100932.06;;;4.78;100.00
35023;BME280;21214;44.912;8.204;2023-02-20T09:23:52;100923.75;;;4.88;100.00
35023;BME280;21214;44.912;8.204;2023-02-20T09:26:18;100925.06;;;4.97;100.00
35023;BME280;21214;44.912;8.204;2023-02-20T09:28:43;100921.38;;;5.01;100.00
35023;BME280;21214;44.912;8.204;2023-02-20T09:31:08;100926.16;;;5.10;100.00
35023;BME280;21214;44.912;8.204;2023-02-20T09:33:34;100923.38;;;5.13;100.00
35023;BME280;21214;44.912;8.204;2023-02-20T09:35:59;100931.09;;;5.16;100.00
35023;BME280;21214;44.912;8.204;2023-02-20T09:38:24;100932.81;;;5.17;100.00
35023;BME280;21214;44.912;8.204;2023-02-20T09:40:53;100927.47;;;5.19;100.00
35023;BME280;21214;44.912;8.204;2023-02-20T09:46:16;100927.72;;;5.49;100.00
35023;BME280;21214;44.912;8.204;2023-02-20T09:48:51;100922.03;;;5.58;100.00
35023;BME280;21214;44.912;8.204;2023-02-20T09:51:19;100919.53;;;5.72;100.00
35023;BME280;21214;44.912;8.204;2023-02-20T09:56:22;100925.16;;;5.82;100.00
35023;BME280;21214;44.912;8.204;2023-02-20T09:58:53;100925.56;;;5.91;100.00
35023;BME280;21214;44.912;8.204;2023-02-20T10:01:23;100925.25;;;5.97;100.00
35023;BME280;21214;44.912;8.204;2023-02-20T10:03:56;100925.09;;;6.00;100.00
35023;BME280;21214;44.912;8.204;2023-02-20T10:06:24;100918.22;;;5.81;100.00
35023;BME280;21214;44.912;8.204;2023-02-20T10:08:50;100918.31;;;5.96;100.00
35023;BME280;21214;44.912;8.204;2023-02-20T10:14:11;100922.16;;;6.06;100.00
35023;BME280;21214;44.912;8.204;2023-02-20T10:22:04;100913.44;;;6.06;100.00
35023;BME280;21214;44.912;8.204;2023-02-20T10:27:00;100909.75;;;6.26;100.00
35023;BME280;21214;44.912;8.204;2023-02-20T10:29:29;100904.69;;;6.23;100.00
35023;BME280;21214;44.912;8.204;2023-02-20T10:32:00;100901.28;;;6.36;100.00
35023;BME280;21214;44.912;8.204;2023-02-20T10:35:10;100900.13;;;6.42;100.00
35023;BME280;21214;44.912;8.204;2023-02-20T10:37:17;100902.84;;;6.56;100.00
35023;BME280;21214;44.912;8.204;2023-02-20T10:39:49;100898.09;;;6.63;100.00
35023;BME280;21214;44.912;8.204;2023-02-20T10:42:27;100894.22;;;6.70;100.00
35023;BME280;21214;44.912;8.204;2023-02-20T10:44:56;100882.69;;;6.72;100.00
35023;BME280;21214;44.912;8.204;2023-02-20T10:50:00;100885.19;;;6.89;100.00
35023;BME280;21214;44.912;8.204;2023-02-20T10:52:29;100884.84;;;6.95;100.00
35023;BME280;21214;44.912;8.204;2023-02-20T10:55:02;100879.59;;;7.11;100.00
35023;BME280;21214;44.912;8.204;2023-02-20T10:57:31;100886.47;;;7.28;100.00
35023;BME280;21214;44.912;8.204;2023-02-20T11:02:42;100873.00;;;7.48;100.00
35023;BME280;21214;44.912;8.204;2023-02-20T11:05:09;100876.22;;;7.53;100.00
35023;BME280;21214;44.912;8.204;2023-02-20T11:07:35;100867.66;;;7.50;100.00
35023;BME280;21214;44.912;8.204;2023-02-20T11:10:01;100865.34;;;7.59;100.00
35023;BME280;21214;44.912;8.204;2023-02-20T11:12:28;100867.50;;;7.67;100.00
35023;BME280;21214;44.912;8.204;2023-02-20T11:14:55;100864.81;;;7.82;100.00
35023;BME280;21214;44.912;8.204;2023-02-20T11:17:22;100863.09;;;7.96;100.00
35023;BME280;21214;44.912;8.204;2023-02-20T11:19:54;100859.34;;;8.00;100.00
35023;BME280;21214;44.912;8.204;2023-02-20T11:27:49;100860.25;;;8.13;100.00
35023;BME280;21214;44.912;8.204;2023-02-20T11:30:25;100847.41;;;8.22;100.00
35023;BME280;21214;44.912;8.204;2023-02-20T11:32:58;100839.63;;;8.35;100.00
35023;BME280;21214;44.912;8.204;2023-02-20T11:35:25;100837.31;;;8.43;100.00
35023;BME280;21214;44.912;8.204;2023-02-20T11:38:15;100829.81;;;8.51;100.00
35023;BME280;21214;44.912;8.204;2023-02-20T11:40:36;100834.28;;;8.63;100.00
35023;BME280;21214;44.912;8.204;2023-02-20T11:43:08;100829.25;;;8.73;100.00
35023;BME280;21214;44.912;8.204;2023-02-20T11:45:34;100818.97;;;8.83;100.00
35023;BME280;21214;44.912;8.204;2023-02-20T11:53:19;100802.41;;;9.20;100.00
35023;BME280;21214;44.912;8.204;2023-02-20T11:55:45;100798.22;;;9.30;100.00
35023;BME280;21214;44.912;8.204;2023-02-20T11:58:20;100794.00;;;9.40;100.00
35023;BME280;21214;44.912;8.204;2023-02-20T12:00:47;100779.22;;;9.51;100.00
35023;BME280;21214;44.912;8.204;2023-02-20T12:03:13;100777.97;;;9.56;100.00
35023;BME280;21214;44.912;8.204;2023-02-20T12:05:43;100774.16;;;9.60;100.00
35023;BME280;21214;44.912;8.204;2023-02-20T12:10:53;100767.13;;;9.97;100.00
35023;BME280;21214;44.912;8.204;2023-02-20T12:13:20;100762.88;;;10.07;100.00
35023;BME280;21214;44.912;8.204;2023-02-20T12:15:47;100763.50;;;10.23;100.00
35023;BME280;21214;44.912;8.204;2023-02-20T12:20:53;100749.94;;;10.41;100.00
35023;BME280;21214;44.912;8.204;2023-02-20T12:23:25;100743.75;;;10.53;100.00
35023;BME280;21214;44.912;8.204;2023-02-20T12:31:26;100728.34;;;10.71;100.00
35023;BME280;21214;44.912;8.204;2023-02-20T12:34:00;100719.34;;;10.73;100.00
35023;BME280;21214;44.912;8.204;2023-02-20T12:36:39;100719.03;;;10.89;100.00
35023;BME280;21214;44.912;8.204;2023-02-20T12:49:17;100701.06;;;11.61;100.00
35023;BME280;21214;44.912;8.204;2023-02-20T12:54:23;100686.00;;;11.72;100.00
35023;BME280;21214;44.912;8.204;2023-02-20T13:02:04;100676.41;;;11.94;100.00
35023;BME280;21214;44.912;8.204;2023-02-20T13:04:44;100670.00;;;12.07;100.00
35023;BME280;21214;44.912;8.204;2023-02-20T13:07:17;100665.75;;;12.16;100.00
35023;BME280;21214;44.912;8.204;2023-02-20T13:10:03;100660.41;;;12.27;100.00
35023;BME280;21214;44.912;8.204;2023-02-20T13:12:30;100651.84;;;12.35;100.00
35023;BME280;21214;44.912;8.204;2023-02-20T13:20:18;100647.81;;;12.72;100.00
35023;BME280;21214;44.912;8.204;2023-02-20T13:22:59;100635.44;;;12.82;100.00
35023;BME280;21214;44.912;8.204;2023-02-20T13:25:35;100635.38;;;12.93;100.00
35023;BME280;21214;44.912;8.204;2023-02-20T13:30:36;100625.31;;;12.97;100.00
35023;BME280;21214;44.912;8.204;2023-02-20T13:33:21;100622.03;;;13.04;100.00
35023;BME280;21214;44.912;8.204;2023-02-20T13:38:15;100611.75;;;13.11;100.00
35023;BME280;21214;44.912;8.204;2023-02-20T13:40:45;100605.41;;;13.23;100.00
35023;BME280;21214;44.912;8.204;2023-02-20T13:43:27;100606.56;;;13.30;100.00
35023;BME280;21214;44.912;8.204;2023-02-20T13:53:37;100593.78;;;13.64;100.00
35023;BME280;21214;44.912;8.204;2023-02-20T13:56:02;100591.25;;;13.63;100.00
35023;BME280;21214;44.912;8.204;2023-02-20T13:58:27;100586.66;;;13.65;100.00
35023;BME280;21214;44.912;8.204;2023-02-20T14:00:53;100585.53;;;13.67;100.00
35023;BME280;21214;44.912;8.204;2023-02-20T14:03:31;100575.91;;;13.57;100.00
35023;BME280;21214;44.912;8.204;2023-02-20T14:06:14;100580.34;;;13.46;100.00
35023;BME280;21214;44.912;8.204;2023-02-20T14:08:44;100567.78;;;13.39;100.00
35023;BME280;21214;44.912;8.204;2023-02-20T14:13:54;100569.47;;;13.09;100.00
35023;BME280;21214;44.912;8.204;2023-02-20T14:16:29;100555.03;;;12.93;100.00
35023;BME280;21214;44.912;8.204;2023-02-20T14:19:08;100549.41;;;12.77;100.00
35023;BME280;21214;44.912;8.204;2023-02-20T14:21:38;100552.72;;;12.69;100.00
35023;BME280;21214;44.912;8.204;2023-02-20T14:24:10;100551.69;;;12.60;100.00
35023;BME280;21214;44.912;8.204;2023-02-20T14:26:38;100549.75;;;12.62;100.00
35023;BME280;21214;44.912;8.204;2023-02-20T14:29:03;100551.22;;;12.55;100.00
35023;BME280;21214;44.912;8.204;2023-02-20T14:31:43;100554.88;;;12.54;100.00
35023;BME280;21214;44.912;8.204;2023-02-20T14:39:18;100539.75;;;12.45;100.00
35023;BME280;21214;44.912;8.204;2023-02-20T14:41:57;100539.03;;;12.43;100.00
35023;BME280;21214;44.912;8.204;2023-02-20T14:44:24;100535.59;;;12.43;100.00
35023;BME280;21214;44.912;8.204;2023-02-20T14:46:51;100536.16;;;12.46;100.00
35023;BME280;21214;44.912;8.204;2023-02-20T14:49:25;100530.84;;;12.46;100.00
35023;BME280;21214;44.912;8.204;2023-02-20T14:51:51;100525.56;;;12.46;100.00
35023;BME280;21214;44.912;8.204;2023-02-20T14:56:42;100520.50;;;12.43;100.00
35023;BME280;21214;44.912;8.204;2023-02-20T14:59:24;100519.69;;;12.43;100.00